Jonni Ritscher — A8JT7 — position and weather

sailwx.info

Track history (hours):
 
Tides and Currents Weather Stations Pressure Air Temp Water Temp Dewpoint Dewpoint Depression Visibility Wind Speed Wind Dir Waves Ship Positions

Jonni Ritscher

Last reported at 2015-Mar-04 23:33 UTC. Time now 2015-Mar-05 00:22 UTC.
Position N 32°06' W 081°01'.

Length 178 m; draft 9.4 m.

Type: Ship. MMSI: 636091136.

Date/timePositionNaut miles runAvg speedWind from/ knotsBaromVisibWave heightAir tempDewpointWater temp
2015-Mar-04 23:33N 32°06' W 081°01'5 5.3
2015-Mar-04 22:33N 32°06' W 081°07'2 2.1
2015-Mar-04 21:31N 32°08' W 081°09'0 0.0
2015-Mar-04 20:33N 32°08' W 081°09'0 0.0
2015-Mar-04 19:33N 32°08' W 081°09'0 0.0
2015-Mar-04 18:33N 32°08' W 081°09'0 0.0
2015-Mar-04 17:32N 32°08' W 081°09'0 0.0
2015-Mar-04 16:29N 32°08' W 081°09'0 0.0
2015-Mar-04 15:28N 32°08' W 081°09'0 0.0
2015-Mar-04 14:31N 32°08' W 081°09'0 0.0
2015-Mar-04 13:33N 32°08' W 081°09'0 0.0
2015-Mar-04 12:33N 32°08' W 081°09'0 0.0
2015-Mar-04 11:33N 32°08' W 081°09'0 0.0
2015-Mar-04 10:32N 32°08' W 081°09'0 0.0
2015-Mar-04 09:32N 32°08' W 081°09'0 0.0
2015-Mar-04 08:31N 32°08' W 081°09'0 0.0
2015-Mar-04 07:31N 32°08' W 081°09'0 0.0
2015-Mar-04 06:33N 32°08' W 081°09'0 0.0
2015-Mar-04 05:33N 32°08' W 081°09'0 0.0
2015-Mar-04 04:33N 32°08' W 081°09'2 2.2
2015-Mar-04 03:34N 32°06' W 081°07'5 5.0
2015-Mar-04 02:34N 32°06' W 081°01'9 8.7
2015-Mar-04 01:33N 32°02' W 080°52'1010.2
2015-Mar-04 00:32N 31°58' W 080°41'7 7.1
2015-Mar-03 23:31N 31°58' W 080°32'0 0.0
2015-Mar-03 22:31N 31°58' W 080°32'0 0.0
2015-Mar-03 20:24N 31°58' W 080°32'0 0.0
2015-Mar-03 19:33N 31°58' W 080°32'  
2015-Mar-01 07:07N 37°53' W 074°46'1017.0
2015-Mar-01 06:33N 38°02' W 074°42'8517.0
2015-Mar-01 01:33N 39°21' W 074°02'1716.7
2015-Mar-01 00:33N 39°36' W 073°55'1717.4
2015-Feb-28 23:33N 39°53' W 073°50'2417.6
2015-Feb-28 22:11N 40°17' W 073°49'1115.5
2015-Feb-28 21:31N 40°28' W 073°52'1212.1
2015-Feb-28 20:33N 40°36' W 074°03'6 5.9
2015-Feb-28 19:32N 40°40' W 074°09'2 0.5
2015-Feb-28 16:32N 40°41' W 074°09'0 0.0
2015-Feb-28 15:32N 40°41' W 074°09'0 0.0
2015-Feb-28 14:31N 40°41' W 074°09'0 0.0
2015-Feb-28 13:31N 40°41' W 074°09'0 0.0
2015-Feb-28 12:31N 40°41' W 074°09'0 0.0
2015-Feb-28 11:24N 40°41' W 074°09'0 0.0
2015-Feb-28 10:30N 40°41' W 074°09'0 0.0
2015-Feb-28 09:23N 40°41' W 074°09'0 0.0
2015-Feb-28 08:29N 40°41' W 074°09'0 0.0
2015-Feb-28 07:28N 40°41' W 074°09'0 0.0
2015-Feb-28 06:28N 40°41' W 074°09'0 0.0
2015-Feb-28 05:33N 40°41' W 074°09'0 0.0
2015-Feb-28 04:33N 40°41' W 074°09'0 0.0
2015-Feb-28 03:33N 40°41' W 074°09'0 0.0
2015-Feb-28 02:32N 40°41' W 074°09'0 0.0
2015-Feb-28 01:32N 40°41' W 074°09'0 0.0
2015-Feb-28 00:28N 40°41' W 074°09'0 0.0
2015-Feb-27 23:31N 40°41' W 074°09'0 0.0
2015-Feb-27 22:30N 40°41' W 074°09'0 0.0
2015-Feb-27 21:30N 40°41' W 074°09'0 0.0
2015-Feb-27 20:30N 40°41' W 074°09'0 0.0
2015-Feb-27 19:29N 40°41' W 074°09'0 0.0
2015-Feb-27 18:29N 40°41' W 074°09'0 0.0
2015-Feb-27 17:32N 40°41' W 074°09'2 1.6
2015-Feb-27 16:33N 40°40' W 074°09'5 4.7
2015-Feb-27 15:33N 40°38' W 074°03'10 9.5
2015-Feb-27 14:33N 40°30' W 073°56'9 8.9
2015-Feb-27 13:33N 40°27' W 073°45'7 4.6
2015-Feb-27 12:06N 40°30' W 073°37'0 0.0
2015-Feb-27 08:32N 40°30' W 073°37'0 0.0
2015-Feb-27 07:23N 40°30' W 073°37'0 0.0
2015-Feb-27 06:07N 40°30' W 073°37'0 0.0
2015-Feb-27 02:30N 40°30' W 073°37'0 0.0
2015-Feb-26 21:24N 40°30' W 073°37'0 0.0
2015-Feb-26 20:27N 40°30' W 073°37'0 0.0
2015-Feb-26 19:18N 40°30' W 073°37'0 0.0
2015-Feb-26 16:16N 40°30' W 073°37'0 0.0
2015-Feb-26 15:31N 40°30' W 073°37'0 0.0
2015-Feb-26 14:09N 40°30' W 073°37'0 0.0
2015-Feb-26 13:27N 40°30' W 073°37'0 0.0
2015-Feb-26 12:14N 40°30' W 073°37'0 0.0
2015-Feb-26 11:20N 40°30' W 073°37'0 0.0
2015-Feb-26 10:26N 40°30' W 073°37'0 0.0
2015-Feb-26 09:31N 40°30' W 073°37'0 0.0
2015-Feb-26 08:28N 40°30' W 073°37'0 0.0
2015-Feb-26 07:30N 40°30' W 073°37'0 0.0
2015-Feb-26 05:23N 40°30' W 073°37'0 0.0
2015-Feb-26 04:29N 40°30' W 073°37'0 0.0
2015-Feb-26 01:19N 40°30' W 073°37'0 0.0
2015-Feb-26 00:06N 40°30' W 073°37'70 5.6
2015-Feb-25 11:30N 40°01' W 072°13'2915.1
2015-Feb-25 09:33N 40°02' W 071°35'1615.8
2015-Feb-25 08:32N 40°02' W 071°14'10316.5
2015-Feb-25 02:16N 40°01' W 068°59'  
Track history (hours):
 
Tides and Currents Weather Stations Pressure Air Temp Water Temp Dewpoint Dewpoint Depression Visibility Wind Speed Wind Dir Waves Ship Positions

Jonni Ritscher

Last reported at 2015-Mar-04 23:33 UTC. Time now 2015-Mar-05 00:22 UTC.
Position N 32°06' W 081°01'.

Length 178 m; draft 9.4 m.

Type: Ship. MMSI: 636091136.

Date/timePositionNaut miles runAvg speedWind from/ knotsBaromVisibWave heightAir tempDewpointWater temp
2015-Mar-04 23:33N 32°06' W 081°01'5 5.3
2015-Mar-04 22:33N 32°06' W 081°07'2 2.1
2015-Mar-04 21:31N 32°08' W 081°09'0 0.0
2015-Mar-04 20:33N 32°08' W 081°09'0 0.0
2015-Mar-04 19:33N 32°08' W 081°09'0 0.0
2015-Mar-04 18:33N 32°08' W 081°09'0 0.0
2015-Mar-04 17:32N 32°08' W 081°09'0 0.0
2015-Mar-04 16:29N 32°08' W 081°09'0 0.0
2015-Mar-04 15:28N 32°08' W 081°09'0 0.0
2015-Mar-04 14:31N 32°08' W 081°09'0 0.0
2015-Mar-04 13:33N 32°08' W 081°09'0 0.0
2015-Mar-04 12:33N 32°08' W 081°09'0 0.0
2015-Mar-04 11:33N 32°08' W 081°09'0 0.0
2015-Mar-04 10:32N 32°08' W 081°09'0 0.0
2015-Mar-04 09:32N 32°08' W 081°09'0 0.0
2015-Mar-04 08:31N 32°08' W 081°09'0 0.0
2015-Mar-04 07:31N 32°08' W 081°09'0 0.0
2015-Mar-04 06:33N 32°08' W 081°09'0 0.0
2015-Mar-04 05:33N 32°08' W 081°09'0 0.0
2015-Mar-04 04:33N 32°08' W 081°09'2 2.2
2015-Mar-04 03:34N 32°06' W 081°07'5 5.0
2015-Mar-04 02:34N 32°06' W 081°01'9 8.7
2015-Mar-04 01:33N 32°02' W 080°52'1010.2
2015-Mar-04 00:32N 31°58' W 080°41'7 7.1
2015-Mar-03 23:31N 31°58' W 080°32'0 0.0
2015-Mar-03 22:31N 31°58' W 080°32'0 0.0
2015-Mar-03 20:24N 31°58' W 080°32'0 0.0
2015-Mar-03 19:33N 31°58' W 080°32'  
2015-Mar-01 07:07N 37°53' W 074°46'1017.0
2015-Mar-01 06:33N 38°02' W 074°42'8517.0
2015-Mar-01 01:33N 39°21' W 074°02'1716.7
2015-Mar-01 00:33N 39°36' W 073°55'1717.4
2015-Feb-28 23:33N 39°53' W 073°50'2417.6
2015-Feb-28 22:11N 40°17' W 073°49'1115.5
2015-Feb-28 21:31N 40°28' W 073°52'1212.1
2015-Feb-28 20:33N 40°36' W 074°03'6 5.9
2015-Feb-28 19:32N 40°40' W 074°09'2 0.5
2015-Feb-28 16:32N 40°41' W 074°09'0 0.0
2015-Feb-28 15:32N 40°41' W 074°09'0 0.0
2015-Feb-28 14:31N 40°41' W 074°09'0 0.0
2015-Feb-28 13:31N 40°41' W 074°09'0 0.0
2015-Feb-28 12:31N 40°41' W 074°09'0 0.0
2015-Feb-28 11:24N 40°41' W 074°09'0 0.0
2015-Feb-28 10:30N 40°41' W 074°09'0 0.0
2015-Feb-28 09:23N 40°41' W 074°09'0 0.0
2015-Feb-28 08:29N 40°41' W 074°09'0 0.0
2015-Feb-28 07:28N 40°41' W 074°09'0 0.0
2015-Feb-28 06:28N 40°41' W 074°09'0 0.0
2015-Feb-28 05:33N 40°41' W 074°09'0 0.0
2015-Feb-28 04:33N 40°41' W 074°09'0 0.0
2015-Feb-28 03:33N 40°41' W 074°09'0 0.0
2015-Feb-28 02:32N 40°41' W 074°09'0 0.0
2015-Feb-28 01:32N 40°41' W 074°09'0 0.0
2015-Feb-28 00:28N 40°41' W 074°09'0 0.0
2015-Feb-27 23:31N 40°41' W 074°09'0 0.0
2015-Feb-27 22:30N 40°41' W 074°09'0 0.0
2015-Feb-27 21:30N 40°41' W 074°09'0 0.0
2015-Feb-27 20:30N 40°41' W 074°09'0 0.0
2015-Feb-27 19:29N 40°41' W 074°09'0 0.0
2015-Feb-27 18:29N 40°41' W 074°09'0 0.0
2015-Feb-27 17:32N 40°41' W 074°09'2 1.6
2015-Feb-27 16:33N 40°40' W 074°09'5 4.7
2015-Feb-27 15:33N 40°38' W 074°03'10 9.5
2015-Feb-27 14:33N 40°30' W 073°56'9 8.9
2015-Feb-27 13:33N 40°27' W 073°45'7 4.6
2015-Feb-27 12:06N 40°30' W 073°37'0 0.0
2015-Feb-27 08:32N 40°30' W 073°37'0 0.0
2015-Feb-27 07:23N 40°30' W 073°37'0 0.0
2015-Feb-27 06:07N 40°30' W 073°37'0 0.0
2015-Feb-27 02:30N 40°30' W 073°37'0 0.0
2015-Feb-26 21:24N 40°30' W 073°37'0 0.0
2015-Feb-26 20:27N 40°30' W 073°37'0 0.0
2015-Feb-26 19:18N 40°30' W 073°37'0 0.0
2015-Feb-26 16:16N 40°30' W 073°37'0 0.0
2015-Feb-26 15:31N 40°30' W 073°37'0 0.0
2015-Feb-26 14:09N 40°30' W 073°37'0 0.0
2015-Feb-26 13:27N 40°30' W 073°37'0 0.0
2015-Feb-26 12:14N 40°30' W 073°37'0 0.0
2015-Feb-26 11:20N 40°30' W 073°37'0 0.0
2015-Feb-26 10:26N 40°30' W 073°37'0 0.0
2015-Feb-26 09:31N 40°30' W 073°37'0 0.0
2015-Feb-26 08:28N 40°30' W 073°37'0 0.0
2015-Feb-26 07:30N 40°30' W 073°37'0 0.0
2015-Feb-26 05:23N 40°30' W 073°37'0 0.0
2015-Feb-26 04:29N 40°30' W 073°37'0 0.0
2015-Feb-26 01:19N 40°30' W 073°37'0 0.0
2015-Feb-26 00:06N 40°30' W 073°37'70 5.6
2015-Feb-25 11:30N 40°01' W 072°13'2915.1
2015-Feb-25 09:33N 40°02' W 071°35'1615.8
2015-Feb-25 08:32N 40°02' W 071°14'10316.5
2015-Feb-25 02:16N 40°01' W 068°59'  

Dump ship's entire track history